Time;durP1;ratioP1;P1;durP2;ratioP2;P2;SDS_P1;SDS_P2;PMS_P1;PMS_P2;Temp;Humidity;BMP_temperature;BMP_pressure;BME280_temperature;BME280_humidity;BME280_pressure;Samples;Min_cycle;Max_cycle;Signal;HPM_P1;HPM_P2
2021/04/28 00:01:06;;;;;;;11.45;4.90;;;9.10;41.60;8.10;100636.00;;;;5059686;28;20049;-72
2021/04/28 00:03:32;;;;;;;9.63;4.80;;;9.00;40.50;8.00;100626.00;;;;5054769;28;20769;-72
2021/04/28 00:05:58;;;;;;;9.32;4.18;;;10.80;42.40;8.00;100625.00;;;;5041237;28;20155;-71
2021/04/28 00:08:23;;;;;;;4.97;4.30;;;9.00;41.30;8.00;100621.00;;;;5053881;28;20075;-72
2021/04/28 00:10:49;;;;;;;11.05;4.80;;;9.00;41.70;8.00;100623.00;;;;5062154;28;20106;-72
2021/04/28 00:13:17;;;;;;;6.93;4.45;;;8.90;41.80;7.90;100636.00;;;;5055503;28;20036;-72
2021/04/28 00:15:48;;;;;;;9.60;4.60;;;8.90;41.40;7.90;100629.00;;;;5055421;28;20044;-73
2021/04/28 00:18:16;;;;;;;9.45;4.90;;;9.90;42.20;7.80;100620.00;;;;5055880;28;20120;-72
2021/04/28 00:20:43;;;;;;;10.73;4.95;;;8.80;41.40;7.80;100623.00;;;;5057497;28;20032;-73
2021/04/28 00:23:10;;;;;;;7.15;4.70;;;8.90;41.80;7.80;100621.00;;;;5056447;28;20102;-73
2021/04/28 00:25:38;;;;;;;8.35;5.43;;;8.90;42.40;7.80;100615.00;;;;5052600;28;20093;-73
2021/04/28 00:28:05;;;;;;;7.32;5.10;;;8.80;41.80;7.70;100612.00;;;;5050789;28;20674;-73
2021/04/28 00:30:32;;;;;;;;;;;12.60;44.00;7.60;100607.00;;;;5054385;28;20063;-73
2021/04/28 00:32:58;;;;;;;9.82;5.43;;;8.70;42.70;7.60;100605.00;;;;5071327;28;19971;-73
2021/04/28 00:35:25;;;;;;;7.38;4.80;;;8.70;41.90;7.60;100600.00;;;;5054064;28;20040;-72
2021/04/28 00:37:52;;;;;;;7.57;4.55;;;8.60;42.30;7.60;100592.00;;;;5049534;28;20105;-73
2021/04/28 00:40:32;;;;;;;6.43;4.33;;;8.60;43.20;7.50;100593.00;;;;5035091;28;20197;-73
2021/04/28 00:43:00;;;;;;;7.22;4.90;;;8.60;43.00;7.50;100595.00;;;;5054549;28;20279;-73
2021/04/28 00:45:28;;;;;;;12.27;4.78;;;8.60;43.10;7.50;100574.00;;;;5046541;28;20117;-73
2021/04/28 00:47:57;;;;;;;6.00;4.63;;;8.60;42.90;7.50;100577.00;;;;5047632;28;20055;-72
2021/04/28 00:50:31;;;;;;;7.35;4.43;;;8.60;43.00;7.50;100576.00;;;;5052920;28;20500;-73
2021/04/28 00:52:58;;;;;;;9.20;5.07;;;8.50;43.00;7.50;100570.00;;;;5050569;28;20032;-72
2021/04/28 00:55:25;;;;;;;6.15;4.85;;;8.50;41.80;7.40;100574.00;;;;5053840;28;20534;-72
2021/04/28 00:57:52;;;;;;;9.95;4.97;;;9.00;44.90;7.40;100575.00;;;;5057127;28;20108;-72
2021/04/28 01:00:20;;;;;;;8.82;4.70;;;8.50;42.80;7.40;100574.00;;;;5055203;28;20044;-72
2021/04/28 01:02:46;;;;;;;6.38;4.43;;;8.40;42.90;7.40;100571.00;;;;5058820;28;20040;-73
2021/04/28 01:05:14;;;;;;;9.95;5.00;;;8.40;43.40;7.30;100569.00;;;;5055598;28;20090;-72
2021/04/28 01:07:43;;;;;;;8.77;4.90;;;8.40;43.50;7.30;100567.00;;;;5054829;28;20044;-72
2021/04/28 01:10:20;;;;;;;14.30;5.03;;;8.30;43.40;7.30;100563.00;;;;5040360;28;20043;-73
2021/04/28 01:12:47;;;;;;;8.48;5.05;;;8.40;43.30;7.20;100557.00;;;;5054896;28;20048;-72
2021/04/28 01:15:18;;;;;;;6.75;4.50;;;8.30;44.10;7.20;100559.00;;;;5041984;28;20049;-72
2021/04/28 01:17:52;;;;;;;7.57;4.45;;;8.30;43.70;7.20;100567.00;;;;5047117;28;20039;-72
2021/04/28 01:20:21;;;;;;;7.90;4.95;;;8.30;43.50;7.20;100566.00;;;;5052986;28;20032;-72
2021/04/28 01:22:49;;;;;;;10.88;5.18;;;8.30;43.50;7.20;100567.00;;;;5075604;28;20067;-73
2021/04/28 01:25:22;;;;;;;8.40;4.90;;;8.20;43.20;7.10;100556.00;;;;5055557;28;20140;-72
2021/04/28 01:28:09;;;;;;;12.20;4.90;;;8.30;44.40;7.10;100568.00;;;;5056131;28;20071;-72
2021/04/28 01:30:44;;;;;;;12.30;5.20;;;8.20;44.90;7.10;100563.00;;;;5054033;28;20063;-73
2021/04/28 01:33:20;;;;;;;6.45;4.90;;;8.10;44.20;7.00;100567.00;;;;5061469;28;20113;-72
2021/04/28 01:35:51;;;;;;;8.27;4.65;;;8.10;43.80;7.00;100558.00;;;;5056198;28;20104;-72
2021/04/28 01:38:18;;;;;;;6.93;4.55;;;8.10;44.30;7.00;100555.00;;;;5058599;28;20036;-72
2021/04/28 01:40:45;;;;;;;8.30;5.30;;;8.10;43.60;6.90;100545.00;;;;5053123;28;20036;-72
2021/04/28 01:43:12;;;;;;;10.38;5.32;;;8.00;44.50;6.90;100546.00;;;;5056250;28;20044;-73
2021/04/28 01:45:44;;;;;;;11.00;4.88;;;8.00;44.80;6.90;100553.00;;;;5031938;28;20086;-73
2021/04/28 01:48:11;;;;;;;8.35;4.88;;;8.00;44.70;6.90;100550.00;;;;5041172;28;20072;-73
2021/04/28 01:50:40;;;;;;;13.63;5.28;;;7.90;43.50;6.80;100548.00;;;;5049760;28;20040;-72
2021/04/28 01:53:06;;;;;;;10.45;5.30;;;8.00;44.90;6.80;100545.00;;;;5055238;28;20048;-72
2021/04/28 01:55:33;;;;;;;8.70;5.07;;;7.90;44.80;6.80;100544.00;;;;5054058;28;20086;-72
2021/04/28 01:58:29;;;;;;;7.97;5.25;;;7.90;45.00;6.80;100544.00;;;;5050943;28;20040;-72
2021/04/28 02:00:56;;;;;;;9.20;5.05;;;8.00;45.40;6.80;100540.00;;;;5037845;28;20052;-72
2021/04/28 02:03:26;;;;;;;10.65;5.50;;;8.20;45.30;6.80;100539.00;;;;5048695;28;20101;-72
2021/04/28 02:05:55;;;;;;;8.80;5.45;;;7.80;45.00;6.70;100535.00;;;;5030769;28;20044;-72
2021/04/28 02:08:21;;;;;;;10.57;5.00;;;7.90;45.40;6.70;100545.00;;;;5049329;28;20146;-72
2021/04/28 02:10:47;;;;;;;13.27;5.18;;;7.80;45.80;6.70;100537.00;;;;5038353;28;20061;-72
2021/04/28 02:13:16;;;;;;;13.73;5.93;;;7.80;45.80;6.70;100526.00;;;;5053608;28;20033;-72
2021/04/28 02:15:46;;;;;;;8.15;5.32;;;7.70;44.90;6.60;100531.00;;;;5066814;28;20094;-72
2021/04/28 02:18:16;;;;;;;12.90;5.68;;;7.70;45.80;6.60;100537.00;;;;5054340;28;20055;-72
2021/04/28 02:20:47;;;;;;;10.95;5.65;;;7.70;45.50;6.60;100528.00;;;;5031114;28;20040;-73
2021/04/28 02:23:37;;;;;;;8.70;5.57;;;7.60;45.30;6.50;100527.00;;;;5056091;28;20086;-72
2021/04/28 02:26:04;;;;;;;9.50;5.28;;;7.60;45.40;6.50;100519.00;;;;5035110;28;20406;-73
2021/04/28 02:28:32;;;;;;;9.45;5.10;;;7.60;46.10;6.50;100526.00;;;;5051236;28;20064;-73
2021/04/28 02:31:03;;;;;;;11.18;5.47;;;7.50;47.00;6.40;100521.00;;;;5052167;28;20465;-72
2021/04/28 02:33:36;;;;;;;10.30;5.78;;;7.50;45.80;6.40;100515.00;;;;5032565;28;20043;-72
2021/04/28 02:36:40;;;;;;;8.93;5.35;;;7.50;46.10;6.30;100514.00;;;;5044781;28;20037;-72
2021/04/28 02:39:46;;;;;;;11.50;5.53;;;7.50;47.20;6.30;100516.00;;;;5052663;28;20051;-72
2021/04/28 02:42:12;;;;;;;10.00;5.60;;;7.40;46.10;6.30;100520.00;;;;5069947;28;20044;-71
2021/04/28 02:44:39;;;;;;;7.95;5.55;;;7.70;46.60;6.20;100508.00;;;;5056028;28;20113;-72
2021/04/28 02:47:10;;;;;;;10.40;5.93;;;7.40;47.00;6.20;100505.00;;;;5040053;28;20042;-72
2021/04/28 02:49:40;;;;;;;10.02;6.15;;;7.30;46.20;6.20;100507.00;;;;5037138;28;20098;-72
2021/04/28 02:52:29;;;;;;;8.70;5.50;;;8.10;46.90;6.10;100499.00;;;;5053431;28;20037;-72
2021/04/28 02:54:56;;;;;;;9.70;6.53;;;7.20;45.70;6.10;100507.00;;;;5059853;28;20045;-72
2021/04/28 02:57:23;;;;;;;10.65;6.32;;;7.20;46.50;6.00;100505.00;;;;5047515;28;20037;-72
2021/04/28 02:59:51;;;;;;;13.10;6.47;;;7.20;48.00;6.00;100497.00;;;;5052544;28;20067;-72
2021/04/28 03:02:21;;;;;;;13.23;6.07;;;7.10;47.30;6.00;100499.00;;;;5069202;28;20043;-72
2021/04/28 03:04:52;;;;;;;8.27;6.43;;;10.80;48.90;5.90;100506.00;;;;5041924;28;20047;-71
2021/04/28 03:07:33;;;;;;;10.23;6.50;;;6.70;47.50;5.90;100508.00;;;;5033534;28;20123;-71
2021/04/28 03:10:01;;;;;;;9.32;6.03;;;7.00;47.60;5.90;100503.00;;;;5049913;28;20513;-71
2021/04/28 03:12:27;;;;;;;9.03;6.03;;;7.00;47.70;5.90;100495.00;;;;5050649;28;20055;-71
2021/04/28 03:14:57;;;;;;;9.95;5.97;;;7.00;47.00;5.80;100496.00;;;;5039561;28;20294;-71
2021/04/28 03:17:24;;;;;;;;;;;7.00;47.60;5.70;100501.00;;;;5035176;28;20056;-72
2021/04/28 03:19:56;;;;;;;7.65;5.40;;;6.90;47.60;5.70;100499.00;;;;5051857;28;20300;-72
2021/04/28 03:22:25;;;;;;;14.23;5.57;;;6.90;46.70;5.70;100493.00;;;;5049650;28;20514;-73
2021/04/28 03:24:52;;;;;;;7.68;6.05;;;6.90;47.30;5.70;100493.00;;;;5034055;28;20041;-71
2021/04/28 03:27:20;;;;;;;11.45;5.93;;;6.90;47.80;5.70;100497.00;;;;5051213;28;20040;-72
2021/04/28 03:29:53;;;;;;;10.27;6.25;;;6.80;48.30;5.60;100492.00;;;;5052913;28;20464;-72
2021/04/28 03:32:19;;;;;;;12.27;6.10;;;6.80;48.10;5.60;100482.00;;;;5051478;28;20315;-73
2021/04/28 03:34:51;;;;;;;8.98;5.70;;;6.80;48.10;5.50;100490.00;;;;5042827;28;20044;-71
2021/04/28 03:37:19;;;;;;;10.07;5.95;;;6.70;48.70;5.50;100490.00;;;;5009255;28;20380;-72
2021/04/28 03:39:45;;;;;;;9.68;5.57;;;7.70;48.90;5.50;100484.00;;;;5033660;28;20033;-72
2021/04/28 03:42:11;;;;;;;8.50;5.70;;;6.70;47.90;5.50;100484.00;;;;5061432;28;20055;-74
2021/04/28 03:44:39;;;;;;;9.27;5.80;;;6.60;48.00;5.50;100485.00;;;;5059117;28;20032;-71
2021/04/28 03:47:06;;;;;;;8.20;5.70;;;6.60;48.90;5.40;100486.00;;;;5055718;28;20036;-72
2021/04/28 03:49:35;;;;;;;8.73;6.20;;;6.60;48.20;5.40;100487.00;;;;5055822;28;20171;-72
2021/04/28 03:52:02;;;;;;;7.83;5.70;;;6.50;49.00;5.30;100482.00;;;;5054557;28;20041;-72
2021/04/28 03:54:47;;;;;;;9.18;6.50;;;6.50;48.00;5.30;100474.00;;;;5058414;28;20113;-72
2021/04/28 03:57:13;;;;;;;11.57;6.25;;;6.40;48.80;5.30;100485.00;;;;5067393;28;20533;-72
2021/04/28 03:59:39;;;;;;;10.32;5.80;;;6.50;48.70;5.30;100498.00;;;;5061826;28;20047;-71
2021/04/28 04:02:05;;;;;;;12.38;6.45;;;6.40;49.00;5.20;100488.00;;;;5053369;28;20419;-71
2021/04/28 04:04:50;;;;;;;13.15;5.85;;;6.20;49.20;5.20;100490.00;;;;5056269;28;20074;-71
2021/04/28 04:07:36;;;;;;;10.23;6.40;;;6.40;48.00;5.20;100481.00;;;;5035653;28;20037;-72
2021/04/28 04:10:17;;;;;;;11.02;6.45;;;6.30;49.00;5.20;100470.00;;;;5043827;28;20045;-72
2021/04/28 04:12:44;;;;;;;9.40;6.05;;;6.40;49.00;5.10;100476.00;;;;5058263;28;20423;-71
2021/04/28 04:15:11;;;;;;;8.03;5.60;;;6.30;49.50;5.10;100478.00;;;;5055764;28;20040;-72
2021/04/28 04:17:37;;;;;;;10.75;5.88;;;6.30;49.00;5.10;100474.00;;;;5029495;28;20403;-72
2021/04/28 04:20:19;;;;;;;11.05;6.60;;;6.20;49.40;5.10;100483.00;;;;5040805;28;20052;-71
2021/04/28 04:22:49;;;;;;;12.38;6.60;;;6.20;48.90;5.10;100479.00;;;;5058850;28;20883;-71
2021/04/28 04:25:34;;;;;;;11.18;6.25;;;6.20;49.60;5.10;100480.00;;;;5053258;28;20048;-72
2021/04/28 04:28:00;;;;;;;12.98;6.70;;;6.20;49.80;5.00;100468.00;;;;5057978;28;20037;-72
2021/04/28 04:31:04;;;;;;;10.55;5.80;;;6.20;49.60;5.10;100476.00;;;;5001200;28;20054;-71
2021/04/28 04:33:49;;;;;;;10.75;6.45;;;6.20;49.20;5.00;100484.00;;;;4999712;28;20044;-72
2021/04/28 04:36:34;;;;;;;8.93;6.00;;;6.20;49.90;5.00;100476.00;;;;5034796;28;20670;-71
2021/04/28 04:39:18;;;;;;;9.02;6.43;;;6.00;50.20;5.00;100484.00;;;;5058182;28;20426;-72
2021/04/28 04:42:04;;;;;;;12.40;6.47;;;6.20;49.40;5.00;100475.00;;;;5059951;28;20071;-71
2021/04/28 04:44:45;;;;;;;13.30;6.57;;;6.20;51.30;5.00;100476.00;;;;5055730;28;20079;-69
2021/04/28 04:47:12;;;;;;;;;;;6.20;50.30;4.90;100480.00;;;;5060829;28;20087;-71
2021/04/28 04:49:39;;;;;;;8.32;6.15;;;6.10;50.00;5.00;100480.00;;;;5057833;28;19951;-71
2021/04/28 04:52:06;;;;;;;11.13;6.45;;;6.30;50.20;5.00;100476.00;;;;5052970;28;20044;-71
2021/04/28 04:54:32;;;;;;;12.40;5.70;;;6.10;50.90;4.90;100468.00;;;;5058367;28;20059;-72
2021/04/28 04:56:58;;;;;;;12.18;6.03;;;6.10;50.00;4.90;100476.00;;;;5055973;28;20068;-71
2021/04/28 04:59:25;;;;;;;9.40;5.97;;;6.10;51.50;4.90;100469.00;;;;5054324;28;20105;-71
2021/04/28 05:01:51;;;;;;;11.53;6.10;;;6.10;51.10;4.90;100474.00;;;;5061274;28;20040;-71
2021/04/28 05:04:17;;;;;;;10.48;6.03;;;6.10;50.00;4.90;100474.00;;;;5059847;28;20064;-71
2021/04/28 05:06:43;;;;;;;11.70;6.55;;;6.20;50.80;5.00;100468.00;;;;5057314;28;20052;-71
2021/04/28 05:09:09;;;;;;;9.95;5.95;;;6.10;50.50;5.00;100465.00;;;;5061647;28;20037;-71
2021/04/28 05:11:35;;;;;;;11.25;6.55;;;6.20;50.40;5.00;100465.00;;;;5056157;28;20774;-70
2021/04/28 05:14:02;;;;;;;13.07;6.55;;;6.20;50.80;5.10;100465.00;;;;5054884;28;20538;-70
2021/04/28 05:16:30;;;;;;;11.98;6.13;;;6.20;50.10;5.10;100475.00;;;;5067271;28;20056;-71
2021/04/28 05:18:56;;;;;;;8.73;6.03;;;6.10;50.70;5.20;100475.00;;;;5055112;28;20040;-71
2021/04/28 05:21:22;;;;;;;11.18;6.32;;;7.00;51.00;5.20;100468.00;;;;5058146;28;20399;-73
2021/04/28 05:23:49;;;;;;;8.30;5.65;;;6.40;50.00;5.30;100471.00;;;;5056504;28;20555;-71
2021/04/28 05:26:50;;;;;;;11.25;6.25;;;6.40;50.80;5.40;100477.00;;;;4987656;28;20932;-72
2021/04/28 05:29:16;;;;;;;12.07;6.10;;;;;5.50;100476.00;;;;5041340;28;20040;-70
2021/04/28 05:31:42;;;;;;;10.38;5.63;;;6.60;50.10;5.60;100479.00;;;;5057040;28;20036;-71
2021/04/28 05:34:08;;;;;;;11.43;5.72;;;6.70;51.40;5.70;100476.00;;;;5052951;28;20442;-71
2021/04/28 05:36:34;;;;;;;12.10;6.65;;;6.70;50.30;5.80;100476.00;;;;5053944;28;20495;-71
2021/04/28 05:39:00;;;;;;;9.88;6.20;;;6.80;50.80;5.80;100476.00;;;;5061971;28;20048;-71
2021/04/28 05:41:28;;;;;;;12.23;5.90;;;6.80;50.70;5.80;100470.00;;;;5057266;28;20044;-71
2021/04/28 05:43:54;;;;;;;10.82;5.60;;;6.90;50.70;5.90;100476.00;;;;5051611;28;20044;-71
2021/04/28 05:46:20;;;;;;;9.90;6.35;;;6.90;50.60;5.90;100470.00;;;;5060346;28;20091;-71
2021/04/28 05:48:47;;;;;;;11.48;6.35;;;6.90;50.80;5.90;100476.00;;;;5058395;28;20554;-72
2021/04/28 05:51:13;;;;;;;14.60;7.07;;;7.80;51.10;6.00;100472.00;;;;5057374;28;20114;-72
2021/04/28 05:53:39;;;;;;;14.65;6.65;;;7.00;50.50;6.00;100465.00;;;;5051834;28;20389;-69
2021/04/28 05:56:07;;;;;;;9.98;6.63;;;7.10;50.20;6.00;100465.00;;;;5059547;28;20241;-71
2021/04/28 05:58:34;;;;;;;9.90;6.22;;;7.10;50.30;6.10;100460.00;;;;5057568;28;20919;-71
2021/04/28 06:01:00;;;;;;;12.50;6.20;;;7.70;51.10;6.10;100455.00;;;;5054623;28;20032;-71
2021/04/28 06:03:27;;;;;;;8.48;6.28;;;7.20;50.90;6.20;100466.00;;;;5038555;28;20479;-71
2021/04/28 06:05:53;;;;;;;11.53;6.73;;;7.20;50.70;6.30;100476.00;;;;5054737;28;20079;-72
2021/04/28 06:08:19;;;;;;;9.85;6.28;;;7.00;50.40;6.40;100473.00;;;;5058893;28;20549;-72
2021/04/28 06:10:45;;;;;;;13.43;6.60;;;7.40;50.80;6.40;100476.00;;;;5050185;28;20069;-70
2021/04/28 06:13:11;;;;;;;12.00;6.50;;;7.40;49.20;6.50;100479.00;;;;5053090;28;20056;-70
2021/04/28 06:15:37;;;;;;;12.65;6.47;;;7.50;50.40;6.60;100483.00;;;;5058311;28;20040;-71
2021/04/28 06:18:08;;;;;;;12.75;6.38;;;7.50;50.70;6.70;100483.00;;;;5034282;28;20518;-70
2021/04/28 06:20:34;;;;;;;9.25;6.20;;;7.70;50.70;6.70;100481.00;;;;5059438;28;20054;-71
2021/04/28 06:23:02;;;;;;;11.35;6.28;;;7.70;50.10;6.80;100485.00;;;;5051533;28;20213;-70
2021/04/28 06:25:29;;;;;;;12.90;8.32;;;7.80;50.50;6.80;100480.00;;;;5036815;28;20048;-70
2021/04/28 06:27:55;;;;;;;13.75;6.45;;;8.00;50.60;6.90;100481.00;;;;5048239;28;20044;-70
2021/04/28 06:30:21;;;;;;;11.82;6.90;;;7.80;49.60;7.00;100481.00;;;;5047549;28;20047;-71
2021/04/28 06:32:48;;;;;;;12.10;6.70;;;7.90;49.20;7.10;100487.00;;;;5058167;28;20041;-71
2021/04/28 06:35:15;;;;;;;9.25;6.40;;;8.00;50.30;7.10;100492.00;;;;5050095;28;20430;-71
2021/04/28 06:37:41;;;;;;;11.27;6.80;;;8.30;49.50;7.20;100486.00;;;;5050658;28;20143;-71
2021/04/28 06:40:09;;;;;;;10.63;7.20;;;8.10;49.40;7.20;100488.00;;;;5055158;28;20462;-71
2021/04/28 06:42:35;;;;;;;12.25;6.68;;;8.20;50.00;7.40;100486.00;;;;5054940;28;20039;-72
2021/04/28 06:45:03;;;;;;;12.10;7.18;;;8.20;49.00;7.40;100477.00;;;;5057487;28;20052;-72
2021/04/28 06:47:29;;;;;;;12.15;7.22;;;8.30;50.00;7.50;100488.00;;;;5051859;28;20041;-73
2021/04/28 06:49:55;;;;;;;10.90;6.97;;;8.50;50.20;7.60;100490.00;;;;5053459;28;20037;-71
2021/04/28 06:52:22;;;;;;;12.02;6.75;;;8.50;50.70;7.70;100488.00;;;;5054521;28;20509;-70
2021/04/28 06:54:47;;;;;;;10.55;6.60;;;8.70;49.70;7.80;100489.00;;;;5052544;28;20128;-71
2021/04/28 06:57:13;;;;;;;12.43;6.40;;;8.70;49.20;8.00;100492.00;;;;5055888;28;20144;-70
2021/04/28 06:59:39;;;;;;;13.82;6.80;;;8.80;49.80;8.10;100481.00;;;;5053867;28;20064;-69
2021/04/28 07:02:05;;;;;;;12.80;7.03;;;8.90;49.60;8.20;100485.00;;;;5054738;28;20080;-70
2021/04/28 07:04:31;;;;;;;12.27;6.95;;;9.00;49.50;8.30;100478.00;;;;5054309;28;20075;-71
2021/04/28 07:06:57;;;;;;;13.27;6.70;;;9.10;49.90;8.40;100479.00;;;;5054336;28;20041;-71
2021/04/28 07:09:23;;;;;;;11.30;6.82;;;9.20;49.30;8.60;100482.00;;;;5055407;28;20515;-71
2021/04/28 07:11:49;;;;;;;10.90;6.70;;;9.40;49.60;8.70;100473.00;;;;5054670;28;21624;-71
2021/04/28 07:14:16;;;;;;;9.35;6.47;;;9.50;48.30;8.80;100484.00;;;;5057812;28;20130;-71
2021/04/28 07:16:44;;;;;;;14.70;6.97;;;9.70;48.10;8.90;100484.00;;;;5056871;28;20061;-71
2021/04/28 07:19:10;;;;;;;12.50;7.20;;;10.00;49.10;9.00;100492.00;;;;5058453;28;20033;-71
2021/04/28 07:21:37;;;;;;;12.80;6.43;;;9.90;48.20;9.10;100488.00;;;;5040386;28;20045;-71
2021/04/28 07:24:04;;;;;;;11.27;6.53;;;10.90;49.70;9.30;100495.00;;;;5056169;28;20071;-71
2021/04/28 07:26:31;;;;;;;12.48;7.00;;;10.00;48.50;9.30;100482.00;;;;5061667;28;20778;-71
2021/04/28 07:28:58;;;;;;;12.77;7.22;;;10.10;48.60;9.40;100504.00;;;;5056860;28;20066;-71
2021/04/28 07:31:25;;;;;;;11.15;7.50;;;10.20;48.70;9.40;100494.00;;;;5055906;28;20492;-72
2021/04/28 07:33:51;;;;;;;10.85;6.72;;;10.10;47.60;9.30;100489.00;;;;5057997;28;20130;-71
2021/04/28 07:36:17;;;;;;;10.75;6.90;;;9.90;48.40;9.20;100487.00;;;;5056379;28;20660;-71
2021/04/28 07:38:43;;;;;;;13.70;6.95;;;10.10;50.10;9.30;100481.00;;;;5057659;28;20049;-71
2021/04/28 07:41:10;;;;;;;13.75;7.07;;;10.20;49.00;9.40;100482.00;;;;5059651;28;20042;-71
2021/04/28 07:43:36;;;;;;;12.47;7.70;;;10.20;48.80;9.50;100482.00;;;;5058194;28;20044;-72
2021/04/28 07:46:02;;;;;;;11.80;6.83;;;;;9.60;100475.00;;;;5057134;28;20802;-72
2021/04/28 07:48:28;;;;;;;14.70;7.43;;;10.40;48.20;9.80;100474.00;;;;5056997;28;20041;-72
2021/04/28 07:50:55;;;;;;;10.70;6.78;;;10.50;49.20;10.00;100475.00;;;;5056092;28;20048;-72
2021/04/28 07:53:21;;;;;;;12.77;6.70;;;10.70;48.80;10.30;100468.00;;;;5049649;28;20120;-72
2021/04/28 07:55:47;;;;;;;15.93;7.13;;;11.00;47.80;10.40;100466.00;;;;5053999;28;20044;-73
2021/04/28 07:58:15;;;;;;;13.95;7.47;;;11.10;48.40;10.60;100471.00;;;;5051872;28;20036;-73
2021/04/28 08:00:41;;;;;;;16.33;7.22;;;11.20;47.30;10.90;100474.00;;;;5036013;28;20052;-72
2021/04/28 08:03:07;;;;;;;11.60;6.20;;;11.30;47.90;10.90;100477.00;;;;5055966;28;20445;-73
2021/04/28 08:05:34;;;;;;;10.45;7.10;;;11.60;47.60;11.10;100488.00;;;;5053160;28;20369;-73
2021/04/28 08:07:59;;;;;;;11.53;7.03;;;11.80;47.30;11.20;100477.00;;;;5051399;28;20044;-73
2021/04/28 08:10:26;;;;;;;13.38;7.30;;;12.20;47.60;11.40;100480.00;;;;5038483;28;20101;-73
2021/04/28 08:12:52;;;;;;;14.57;7.15;;;12.00;46.30;11.60;100490.00;;;;5056436;28;20102;-73
2021/04/28 08:15:18;;;;;;;13.25;7.22;;;12.30;47.00;11.50;100466.00;;;;5059229;28;20036;-73
2021/04/28 08:17:44;;;;;;;11.45;7.22;;;12.20;46.70;11.50;100480.00;;;;5056799;28;20083;-72
2021/04/28 08:20:12;;;;;;;10.73;7.32;;;12.20;45.40;11.60;100476.00;;;;5056432;28;20037;-72
2021/04/28 08:22:38;;;;;;;;;;;12.20;45.70;11.70;100468.00;;;;5054747;28;20103;-72
2021/04/28 08:25:08;;;;;;;12.02;7.20;;;12.30;45.50;11.80;100464.00;;;;5056253;28;20001;-72
2021/04/28 08:27:34;;;;;;;12.20;7.38;;;12.40;46.40;11.90;100461.00;;;;5070931;28;20098;-72
2021/04/28 08:30:02;;;;;;;10.85;7.35;;;12.60;45.40;12.00;100462.00;;;;5056513;28;20056;-72
2021/04/28 08:32:28;;;;;;;14.02;7.10;;;12.60;46.30;12.20;100452.00;;;;5055856;28;20058;-72
2021/04/28 08:34:54;;;;;;;14.63;7.28;;;12.80;46.40;12.30;100452.00;;;;5058184;28;20052;-72
2021/04/28 08:37:20;;;;;;;15.82;7.55;;;12.90;46.00;12.40;100454.00;;;;5054810;28;20156;-72
2021/04/28 08:39:47;;;;;;;10.50;7.43;;;13.00;46.00;12.50;100449.00;;;;5057083;28;20119;-72
2021/04/28 08:42:15;;;;;;;14.13;7.95;;;13.10;44.60;12.40;100460.00;;;;5055058;28;20044;-72
2021/04/28 08:44:42;;;;;;;12.07;7.68;;;13.10;45.80;12.50;100463.00;;;;5053803;28;20033;-73
2021/04/28 08:47:08;;;;;;;15.25;7.57;;;13.20;46.20;12.70;100452.00;;;;5051115;28;20119;-72
2021/04/28 08:49:35;;;;;;;11.80;8.18;;;13.40;44.20;12.90;100450.00;;;;5056589;28;20032;-73
2021/04/28 08:52:01;;;;;;;11.75;7.60;;;13.40;44.00;13.10;100454.00;;;;5055659;28;20028;-73
2021/04/28 08:54:28;;;;;;;11.25;7.80;;;13.60;45.00;13.20;100458.00;;;;5061945;28;20039;-73
2021/04/28 08:56:55;;;;;;;13.80;7.82;;;13.70;44.00;13.30;100443.00;;;;5052305;28;20044;-73
2021/04/28 08:59:22;;;;;;;14.48;8.50;;;13.80;44.80;13.50;100447.00;;;;5061877;28;20039;-73
2021/04/28 09:01:49;;;;;;;20.40;8.10;;;13.90;44.70;13.60;100457.00;;;;5048922;28;20044;-74
2021/04/28 09:04:18;;;;;;;14.65;8.80;;;14.20;44.30;13.60;100445.00;;;;5058277;28;20041;-73
2021/04/28 09:06:45;;;;;;;12.93;8.07;;;14.20;42.80;13.80;100442.00;;;;5054191;28;20090;-73
2021/04/28 09:09:16;;;;;;;11.38;8.07;;;14.20;44.30;13.90;100437.00;;;;5060167;28;20032;-73
2021/04/28 09:11:51;;;;;;;13.45;8.13;;;14.40;44.00;14.00;100432.00;;;;5051001;28;20612;-73
2021/04/28 09:14:24;;;;;;;11.02;8.57;;;14.60;43.70;14.20;100432.00;;;;5035987;28;20040;-73
2021/04/28 09:17:02;;;;;;;13.73;8.77;;;14.70;43.70;14.30;100440.00;;;;5021428;28;20123;-72
2021/04/28 09:19:55;;;;;;;13.48;8.32;;;14.80;43.50;14.50;100435.00;;;;5034634;28;20186;-72
2021/04/28 09:22:47;;;;;;;11.07;7.43;;;15.00;41.80;14.60;100433.00;;;;5046522;28;20063;-73
2021/04/28 09:25:54;;;;;;;11.00;7.88;;;15.30;42.10;14.90;100437.00;;;;5007251;28;20073;-72
2021/04/28 09:28:35;;;;;;;15.33;8.30;;;15.40;40.20;15.00;100437.00;;;;5016427;28;20050;-72
2021/04/28 09:31:06;;;;;;;12.68;8.77;;;15.50;42.00;15.00;100434.00;;;;5036953;28;21016;-72
2021/04/28 09:33:41;;;;;;;14.80;9.05;;;15.50;41.80;15.00;100436.00;;;;5059921;28;20083;-72
2021/04/28 09:36:12;;;;;;;10.80;8.18;;;15.60;40.20;15.10;100417.00;;;;5054053;28;20758;-72
2021/04/28 09:39:03;;;;;;;13.05;9.13;;;15.60;42.10;15.10;100427.00;;;;5056875;28;20051;-72
2021/04/28 09:41:45;;;;;;;14.63;8.60;;;15.70;41.30;15.30;100421.00;;;;5048051;28;20535;-72
2021/04/28 09:44:17;;;;;;;10.93;8.02;;;15.90;40.70;15.50;100412.00;;;;5038829;28;20040;-72
2021/04/28 09:47:22;;;;;;;11.40;8.65;;;15.90;40.40;15.70;100422.00;;;;5057050;28;20511;-72
2021/04/28 09:49:59;;;;;;;14.00;8.05;;;16.20;41.10;15.90;100408.00;;;;5052922;28;20482;-70
2021/04/28 09:52:34;;;;;;;11.40;8.73;;;16.70;40.40;16.00;100400.00;;;;5053313;28;20045;-72
2021/04/28 09:55:11;;;;;;;13.85;9.05;;;16.60;39.60;16.10;100401.00;;;;5053832;28;20499;-72
2021/04/28 09:57:46;;;;;;;12.25;9.25;;;16.60;38.50;16.10;100400.00;;;;5041932;28;20045;-72
2021/04/28 10:00:24;;;;;;;14.10;8.98;;;16.70;40.40;16.20;100391.00;;;;5038679;28;20597;-72
2021/04/28 10:02:55;;;;;;;;;;;16.70;40.40;16.30;100389.00;;;;5046991;28;20041;-72
2021/04/28 10:05:28;;;;;;;14.40;9.13;;;16.80;40.80;16.30;100383.00;;;;5069223;28;19922;-72
2021/04/28 10:08:10;;;;;;;16.35;9.52;;;16.90;38.50;16.50;100382.00;;;;5055606;28;20048;-72
2021/04/28 10:10:40;;;;;;;13.55;8.77;;;16.90;39.60;16.50;100385.00;;;;5059398;28;20131;-72
2021/04/28 10:13:06;;;;;;;14.20;10.00;;;17.10;38.40;16.70;100385.00;;;;5031634;28;20576;-72
2021/04/28 10:15:34;;;;;;;16.48;9.55;;;17.20;39.80;16.70;100383.00;;;;5052503;28;20044;-71
2021/04/28 10:18:06;;;;;;;12.77;8.75;;;17.20;40.40;16.80;100380.00;;;;5052407;28;20036;-71
2021/04/28 10:20:37;;;;;;;13.35;9.32;;;17.30;39.20;17.00;100399.00;;;;5036100;28;20036;-72
2021/04/28 10:23:20;;;;;;;14.23;9.82;;;17.50;36.10;17.20;100384.00;;;;5035803;28;20049;-72
2021/04/28 10:25:51;;;;;;;16.23;9.63;;;17.60;39.50;17.30;100372.00;;;;5028987;28;20062;-72
2021/04/28 10:28:18;;;;;;;14.30;9.55;;;17.70;38.90;17.40;100373.00;;;;5035502;28;20123;-72
2021/04/28 10:30:48;;;;;;;12.95;9.88;;;17.80;38.80;17.60;100375.00;;;;5051426;28;20415;-72
2021/04/28 10:33:22;;;;;;;15.57;9.43;;;18.00;38.40;17.70;100378.00;;;;5051408;28;20495;-72
2021/04/28 10:35:50;;;;;;;14.40;9.57;;;18.10;37.90;17.70;100374.00;;;;5048957;28;20049;-72
2021/04/28 10:38:27;;;;;;;12.95;9.52;;;18.20;38.90;17.70;100370.00;;;;5053523;28;20059;-72
2021/04/28 10:40:54;;;;;;;16.50;9.75;;;18.20;37.10;17.80;100366.00;;;;5051171;28;20123;-72
2021/04/28 10:43:20;;;;;;;13.38;9.27;;;18.30;37.70;18.10;100368.00;;;;5042414;28;20480;-72
2021/04/28 10:45:48;;;;;;;13.97;10.07;;;18.20;36.30;18.30;100356.00;;;;5054264;28;20059;-72
2021/04/28 10:48:21;;;;;;;13.95;9.32;;;18.80;35.60;18.40;100376.00;;;;5055672;28;20056;-72
2021/04/28 10:50:49;;;;;;;15.43;10.05;;;18.80;36.70;18.40;100377.00;;;;5052249;28;20065;-72
2021/04/28 10:53:28;;;;;;;13.45;10.48;;;18.90;36.70;18.40;100377.00;;;;5050472;28;20106;-72
2021/04/28 10:56:14;;;;;;;19.85;11.45;;;18.90;34.20;18.40;100375.00;;;;5033890;28;20117;-72
2021/04/28 10:58:45;;;;;;;16.52;10.30;;;18.90;32.80;18.50;100365.00;;;;5048351;28;20141;-71
2021/04/28 11:01:15;;;;;;;13.27;9.43;;;19.00;34.50;18.70;100357.00;;;;5053849;28;20805;-71
2021/04/28 11:03:57;;;;;;;15.68;10.07;;;19.10;36.50;19.00;100355.00;;;;5055282;28;20063;-71
2021/04/28 11:06:23;;;;;;;17.42;10.38;;;19.30;35.10;19.20;100353.00;;;;5041732;28;20048;-71